createdAt,value
2023-04-18T00:02:11.336Z,11.47
2023-04-18T00:04:39.390Z,15.63
2023-04-18T00:07:07.304Z,12.60
2023-04-18T00:09:35.245Z,17.20
2023-04-18T00:12:04.970Z,12.17
2023-04-18T00:14:34.857Z,10.70
2023-04-18T00:17:02.915Z,9.77
2023-04-18T00:19:30.845Z,13.03
2023-04-18T00:22:00.102Z,13.60
2023-04-18T00:24:27.849Z,14.97
2023-04-18T00:26:55.591Z,12.60
2023-04-18T00:29:23.842Z,13.00
2023-04-18T00:31:54.109Z,13.00
2023-04-18T00:34:22.309Z,13.13
2023-04-18T00:36:49.917Z,13.70
2023-04-18T00:39:17.653Z,12.30
2023-04-18T00:41:45.313Z,11.37
2023-04-18T00:44:13.312Z,12.70
2023-04-18T00:46:41.309Z,11.37
2023-04-18T00:49:15.154Z,10.90
2023-04-18T00:51:44.896Z,12.40
2023-04-18T00:54:15.311Z,14.20
2023-04-18T00:56:43.848Z,10.00
2023-04-18T00:59:12.106Z,12.60
2023-04-18T01:01:41.752Z,10.80
2023-04-18T01:04:09.885Z,11.30
2023-04-18T01:06:38.212Z,12.33
2023-04-18T01:09:06.740Z,16.50
2023-04-18T01:11:34.460Z,10.27
2023-04-18T01:14:09.222Z,7.23
2023-04-18T01:16:40.214Z,11.20
2023-04-18T01:19:08.547Z,14.30
2023-04-18T01:21:44.043Z,14.00
2023-04-18T01:24:17.778Z,12.27
2023-04-18T01:26:50.205Z,10.37
2023-04-18T01:29:17.887Z,11.30
2023-04-18T01:31:46.228Z,10.33
2023-04-18T01:34:18.216Z,10.07
2023-04-18T01:36:46.836Z,9.00
2023-04-18T01:39:15.007Z,11.93
2023-04-18T01:41:43.274Z,10.83
2023-04-18T01:44:11.321Z,9.17
2023-04-18T01:46:40.961Z,8.93
2023-04-18T01:49:09.983Z,9.57
2023-04-18T01:51:41.092Z,10.20
2023-04-18T01:54:08.766Z,10.67
2023-04-18T01:56:36.532Z,9.67
2023-04-18T01:59:04.213Z,8.83
2023-04-18T02:01:32.011Z,9.63
2023-04-18T02:04:00.378Z,8.07
2023-04-18T02:06:28.078Z,9.77
2023-04-18T02:08:55.760Z,9.70
2023-04-18T02:11:26.335Z,10.40
2023-04-18T02:13:54.147Z,9.70
2023-04-18T02:16:21.916Z,10.30
2023-04-18T02:18:52.829Z,10.13
2023-04-18T02:21:22.072Z,9.07
2023-04-18T02:23:50.044Z,8.57
2023-04-18T02:26:18.192Z,10.10
2023-04-18T02:28:45.757Z,10.13
2023-04-18T02:31:15.503Z,10.77
2023-04-18T02:33:46.477Z,9.23
2023-04-18T02:36:14.559Z,11.60
2023-04-18T02:38:43.412Z,10.00
2023-04-18T02:41:15.394Z,12.67
2023-04-18T02:43:43.134Z,8.93
2023-04-18T02:46:11.026Z,10.13
2023-04-18T02:48:39.078Z,11.07
2023-04-18T02:51:09.753Z,8.33
2023-04-18T02:53:39.346Z,9.70
2023-04-18T02:56:08.428Z,11.50
2023-04-18T02:58:54.709Z,8.80
2023-04-18T03:01:46.571Z,8.90
2023-04-18T03:04:17.351Z,8.90
2023-04-18T03:06:53.540Z,7.87
2023-04-18T03:09:22.340Z,8.10
2023-04-18T03:11:55.814Z,8.93
2023-04-18T03:14:27.047Z,8.33
2023-04-18T03:16:56.633Z,6.37
2023-04-18T03:19:29.341Z,8.90
2023-04-18T03:22:00.586Z,10.97
2023-04-18T03:24:28.566Z,10.10
2023-04-18T03:27:00.746Z,7.70
2023-04-18T03:29:28.777Z,8.90
2023-04-18T03:31:56.825Z,9.83
2023-04-18T03:34:24.692Z,14.43
2023-04-18T03:36:54.278Z,10.60
2023-04-18T03:39:22.513Z,16.83
2023-04-18T03:41:50.279Z,10.80
2023-04-18T03:44:18.356Z,9.70
2023-04-18T03:46:46.879Z,10.80
2023-04-18T03:49:14.664Z,9.13
2023-04-18T03:51:48.069Z,10.83
2023-04-18T03:54:17.265Z,11.30
2023-04-18T03:56:46.525Z,9.20
2023-04-18T03:59:15.796Z,12.07
2023-04-18T04:01:47.672Z,9.17
2023-04-18T04:04:16.123Z,12.27
2023-04-18T04:06:44.282Z,10.57
2023-04-18T04:09:12.114Z,10.47
2023-04-18T04:11:40.675Z,9.90
2023-04-18T04:14:12.015Z,11.10
2023-04-18T04:16:44.950Z,13.10
2023-04-18T04:19:15.560Z,12.30
2023-04-18T04:22:02.882Z,12.90
2023-04-18T04:24:30.874Z,11.23
2023-04-18T04:26:58.997Z,10.13
2023-04-18T04:29:31.437Z,11.13
2023-04-18T04:32:00.073Z,12.03
2023-04-18T04:34:34.654Z,11.10
2023-04-18T04:37:05.272Z,11.07
2023-04-18T04:39:38.905Z,11.40
2023-04-18T04:42:31.408Z,11.23
2023-04-18T04:45:11.236Z,9.17
2023-04-18T04:47:39.166Z,11.90
2023-04-18T04:50:13.426Z,12.40
2023-04-18T04:52:42.406Z,10.40
2023-04-18T04:55:11.128Z,11.60
2023-04-18T04:57:38.961Z,13.30
2023-04-18T05:00:21.802Z,10.30
2023-04-18T05:02:50.534Z,12.93
2023-04-18T05:05:18.486Z,13.40
2023-04-18T05:07:46.394Z,12.10
2023-04-18T05:10:14.340Z,12.53
2023-04-18T05:12:42.270Z,12.90
2023-04-18T05:15:11.253Z,12.37
2023-04-18T05:17:39.118Z,11.80
2023-04-18T05:20:08.970Z,10.60
2023-04-18T05:22:36.906Z,13.30
2023-04-18T05:25:05.877Z,12.07
2023-04-18T05:27:33.773Z,11.40
2023-04-18T05:30:01.571Z,9.23
2023-04-18T05:32:29.577Z,11.27
2023-04-18T05:34:57.226Z,13.43
2023-04-18T05:37:25.354Z,11.03
2023-04-18T05:39:53.036Z,13.30
2023-04-18T05:42:20.688Z,11.93
2023-04-18T05:44:48.349Z,12.00
2023-04-18T05:47:16.208Z,10.10
2023-04-18T05:49:44.158Z,11.30
2023-04-18T05:52:12.079Z,10.33
2023-04-18T05:54:39.915Z,10.77
2023-04-18T05:57:07.568Z,10.70
2023-04-18T05:59:35.522Z,9.60
2023-04-18T06:02:03.284Z,10.67
2023-04-18T06:04:31.737Z,11.00
2023-04-18T06:07:00.033Z,10.23
2023-04-18T06:09:27.733Z,11.73
2023-04-18T06:11:55.512Z,10.17
2023-04-18T06:14:23.401Z,10.37
2023-04-18T06:16:51.219Z,10.90
2023-04-18T06:19:19.007Z,13.07
2023-04-18T06:21:49.094Z,9.03
2023-04-18T06:24:16.932Z,9.90
2023-04-18T06:26:45.090Z,13.50
2023-04-18T06:29:13.020Z,13.13
2023-04-18T06:31:42.257Z,9.57
2023-04-18T06:34:10.027Z,11.40
2023-04-18T06:36:37.805Z,11.70
2023-04-18T06:39:05.997Z,11.07
2023-04-18T06:41:34.189Z,10.23
2023-04-18T06:44:03.799Z,10.03
2023-04-18T06:46:33.712Z,10.87
2023-04-18T06:49:01.636Z,11.23
2023-04-18T06:51:29.385Z,14.07
2023-04-18T06:53:57.095Z,10.27
2023-04-18T06:56:24.977Z,14.10
2023-04-18T06:58:53.088Z,13.80
2023-04-18T07:01:21.103Z,12.40
2023-04-18T07:03:48.898Z,15.03
2023-04-18T07:06:16.914Z,15.27
2023-04-18T07:08:44.607Z,13.90
2023-04-18T07:11:13.391Z,15.37
2023-04-18T07:13:41.182Z,14.50
2023-04-18T07:16:10.670Z,13.33
2023-04-18T07:18:38.772Z,13.93
2023-04-18T07:21:07.858Z,13.47
2023-04-18T07:23:36.628Z,16.30
2023-04-18T07:26:05.933Z,14.90
2023-04-18T07:28:34.092Z,14.80
2023-04-18T07:31:03.353Z,13.70
2023-04-18T07:33:33.768Z,16.33
2023-04-18T07:36:05.670Z,16.43
2023-04-18T07:38:35.580Z,14.33
2023-04-18T07:41:04.258Z,17.73
2023-04-18T07:43:31.907Z,18.70
2023-04-18T07:45:59.670Z,16.20
2023-04-18T07:48:28.283Z,18.20
2023-04-18T07:50:56.714Z,21.27
2023-04-18T07:53:24.618Z,17.30
2023-04-18T07:55:54.665Z,15.77
2023-04-18T07:58:22.769Z,21.37
2023-04-18T08:00:50.421Z,18.30
2023-04-18T08:03:18.862Z,18.73
2023-04-18T08:05:46.895Z,19.90
2023-04-18T08:08:14.809Z,17.97
2023-04-18T08:10:42.546Z,20.60
2023-04-18T08:13:10.284Z,16.47
2023-04-18T08:15:37.994Z,18.90
2023-04-18T08:18:06.199Z,16.47
2023-04-18T08:20:37.346Z,17.93
2023-04-18T08:23:08.669Z,18.10
2023-04-18T08:25:37.882Z,16.53
2023-04-18T08:28:06.026Z,12.53
2023-04-18T08:30:34.032Z,15.23
2023-04-18T08:33:02.833Z,12.87
2023-04-18T08:35:30.755Z,14.93
2023-04-18T08:38:05.341Z,15.70
2023-04-18T08:40:38.009Z,14.67
2023-04-18T08:43:15.970Z,16.50
2023-04-18T08:45:48.198Z,13.03
2023-04-18T08:48:18.407Z,15.57
2023-04-18T08:50:47.851Z,15.10
2023-04-18T08:53:17.637Z,14.83
2023-04-18T08:55:47.059Z,18.67
2023-04-18T08:58:23.789Z,16.97
2023-04-18T09:00:54.741Z,17.70
2023-04-18T09:03:44.283Z,17.43
2023-04-18T09:06:19.537Z,13.80
2023-04-18T09:08:59.359Z,14.07
2023-04-18T09:11:31.890Z,17.50
2023-04-18T09:14:00.705Z,15.00
2023-04-18T09:16:44.854Z,17.60
2023-04-18T09:19:19.433Z,15.03
2023-04-18T09:21:49.048Z,18.07
2023-04-18T09:24:29.508Z,17.33
2023-04-18T09:27:00.023Z,18.00
2023-04-18T09:29:52.810Z,16.17
2023-04-18T09:32:29.682Z,15.67
2023-04-18T09:35:05.526Z,17.90
2023-04-18T09:37:33.532Z,17.00
2023-04-18T09:40:20.992Z,18.83
2023-04-18T09:42:56.941Z,18.20
2023-04-18T09:45:28.152Z,17.00
2023-04-18T09:47:56.762Z,19.10
2023-04-18T09:50:25.359Z,17.30
2023-04-18T09:52:55.885Z,19.87
2023-04-18T09:55:24.736Z,18.80
2023-04-18T09:57:56.611Z,16.57
2023-04-18T10:00:34.236Z,16.87
2023-04-18T10:03:10.076Z,16.20
2023-04-18T10:05:42.897Z,17.73
2023-04-18T10:08:15.176Z,19.07
2023-04-18T10:10:44.354Z,17.30
2023-04-18T10:13:15.065Z,21.27
2023-04-18T10:15:46.393Z,15.97
2023-04-18T10:18:23.688Z,20.40
2023-04-18T10:21:04.365Z,18.90
2023-04-18T10:23:37.896Z,16.37
2023-04-18T10:26:11.025Z,15.60
2023-04-18T10:29:02.025Z,18.73
2023-04-18T10:31:50.395Z,15.73
2023-04-18T10:34:23.420Z,18.53
2023-04-18T10:37:14.067Z,16.23
2023-04-18T10:40:15.678Z,22.53
2023-04-18T10:43:01.148Z,19.27
2023-04-18T10:45:38.026Z,15.87
2023-04-18T10:48:34.117Z,15.80
2023-04-18T10:51:22.963Z,18.97
2023-04-18T10:54:01.123Z,19.13
2023-04-18T10:56:30.554Z,16.60
2023-04-18T10:59:04.199Z,15.80
2023-04-18T11:01:46.282Z,19.90
2023-04-18T11:04:17.753Z,18.70
2023-04-18T11:06:58.741Z,19.27
2023-04-18T11:09:29.234Z,16.40
2023-04-18T11:12:11.447Z,19.53
2023-04-18T11:14:45.765Z,19.17
2023-04-18T11:17:27.323Z,22.23
2023-04-18T11:20:15.374Z,23.00
2023-04-18T11:22:57.399Z,16.53
2023-04-18T11:25:36.542Z,17.90
2023-04-18T11:28:05.561Z,22.60
2023-04-18T11:30:42.590Z,17.43
2023-04-18T11:33:15.108Z,18.60
2023-04-18T11:35:46.854Z,19.37
2023-04-18T11:38:16.965Z,22.80
2023-04-18T11:40:51.453Z,21.47
2023-04-18T11:43:26.357Z,20.10
2023-04-18T11:45:59.403Z,16.83
2023-04-18T11:48:45.637Z,16.77
2023-04-18T11:51:47.512Z,20.90
2023-04-18T11:54:45.059Z,18.30
2023-04-18T11:57:27.239Z,20.70
2023-04-18T12:00:01.758Z,24.40
2023-04-18T12:02:49.729Z,19.73
2023-04-18T12:05:38.905Z,16.10
2023-04-18T12:08:20.759Z,16.20
2023-04-18T12:10:54.851Z,20.20
2023-04-18T12:13:33.059Z,21.93
2023-04-18T12:16:03.359Z,18.23
2023-04-18T12:18:31.651Z,22.60
2023-04-18T12:21:02.343Z,18.77
2023-04-18T12:23:42.527Z,20.30
2023-04-18T12:26:21.254Z,25.40
2023-04-18T12:28:52.911Z,25.73
2023-04-18T12:31:22.489Z,25.57
2023-04-18T12:33:50.855Z,21.43
2023-04-18T12:36:18.508Z,23.43
2023-04-18T12:38:46.984Z,22.63
2023-04-18T12:41:14.638Z,22.90
2023-04-18T12:43:42.469Z,23.83
2023-04-18T12:46:10.433Z,24.63
2023-04-18T12:48:38.410Z,22.63
2023-04-18T12:51:07.253Z,20.97
2023-04-18T12:53:35.065Z,19.20
2023-04-18T12:56:05.107Z,22.53
2023-04-18T12:58:33.082Z,22.40
2023-04-18T13:01:01.171Z,20.53
2023-04-18T13:03:29.228Z,17.90
2023-04-18T13:05:57.098Z,21.93
2023-04-18T13:08:25.024Z,21.17
2023-04-18T13:10:52.948Z,21.50
2023-04-18T13:13:20.668Z,18.97
2023-04-18T13:15:48.523Z,22.20
2023-04-18T13:18:16.562Z,17.17
2023-04-18T13:20:44.644Z,25.47
2023-04-18T13:23:12.419Z,22.03
2023-04-18T13:25:40.273Z,19.10
2023-04-18T13:28:08.125Z,17.23
2023-04-18T13:30:36.020Z,23.03
2023-04-18T13:33:04.180Z,20.47
2023-04-18T13:35:32.122Z,19.63
2023-04-18T13:37:59.908Z,20.13
2023-04-18T13:40:27.544Z,18.43
2023-04-18T13:42:55.313Z,19.17
2023-04-18T13:45:23.254Z,16.00
2023-04-18T13:47:51.206Z,21.23
2023-04-18T13:50:19.203Z,18.27
2023-04-18T13:52:48.746Z,16.90
2023-04-18T13:55:16.900Z,19.57
2023-04-18T13:57:45.088Z,19.57
2023-04-18T14:00:14.548Z,17.97
2023-04-18T14:02:42.873Z,20.93
2023-04-18T14:05:11.428Z,19.43
2023-04-18T14:07:39.727Z,19.47
2023-04-18T14:10:08.773Z,22.20
2023-04-18T14:12:37.278Z,18.50
2023-04-18T14:15:06.714Z,19.07
2023-04-18T14:17:35.128Z,17.43
2023-04-18T14:20:06.675Z,17.00
2023-04-18T14:22:34.523Z,19.00
2023-04-18T14:25:02.312Z,17.00
2023-04-18T14:27:30.146Z,19.90
2023-04-18T14:29:57.717Z,23.60
2023-04-18T14:32:26.410Z,21.87
2023-04-18T14:34:54.268Z,17.40
2023-04-18T14:37:22.461Z,31.47
2023-04-18T14:39:50.241Z,22.03
2023-04-18T14:42:19.009Z,21.50
2023-04-18T14:44:46.816Z,21.50
2023-04-18T14:47:14.802Z,16.43
2023-04-18T14:49:42.592Z,24.60
2023-04-18T14:52:10.326Z,24.30
2023-04-18T14:54:38.106Z,19.87
2023-04-18T14:57:08.297Z,19.23
2023-04-18T14:59:36.003Z,22.73
2023-04-18T15:02:03.922Z,17.67
2023-04-18T15:04:31.904Z,18.97
2023-04-18T15:06:59.689Z,15.57
2023-04-18T15:09:27.374Z,16.30
2023-04-18T15:11:55.072Z,16.50
2023-04-18T15:14:22.856Z,16.60
2023-04-18T15:16:50.854Z,15.47
2023-04-18T15:19:18.717Z,18.30
2023-04-18T15:21:46.437Z,16.17
2023-04-18T15:24:15.329Z,16.70
2023-04-18T15:26:43.586Z,18.07
2023-04-18T15:29:11.553Z,16.47
2023-04-18T15:31:39.486Z,16.90
2023-04-18T15:34:08.404Z,20.43
2023-04-18T15:36:36.897Z,18.67
2023-04-18T15:39:05.901Z,23.23
2023-04-18T15:41:37.526Z,16.27
2023-04-18T15:44:10.529Z,17.07
2023-04-18T15:46:39.504Z,18.70
2023-04-18T15:49:07.283Z,16.97
2023-04-18T15:51:35.167Z,18.50
2023-04-18T15:54:02.897Z,18.60
2023-04-18T15:56:33.168Z,17.33
2023-04-18T15:59:06.202Z,15.10
2023-04-18T16:01:35.821Z,17.47
2023-04-18T16:04:03.817Z,15.97
2023-04-18T16:06:31.887Z,15.80
2023-04-18T16:09:10.958Z,23.53
2023-04-18T16:11:39.355Z,16.20
2023-04-18T16:14:07.317Z,15.80
2023-04-18T16:16:35.220Z,15.83
2023-04-18T16:19:04.440Z,18.07
2023-04-18T16:21:32.733Z,17.30
2023-04-18T16:24:01.066Z,17.30
2023-04-18T16:26:29.183Z,16.67
2023-04-18T16:28:57.215Z,17.20
2023-04-18T16:31:25.031Z,18.50
2023-04-18T16:33:53.094Z,18.03
2023-04-18T16:36:21.050Z,16.40
2023-04-18T16:38:48.719Z,15.90
2023-04-18T16:41:16.551Z,14.53
2023-04-18T16:43:44.414Z,18.23
2023-04-18T16:46:13.905Z,16.17
2023-04-18T16:48:42.021Z,15.13
2023-04-18T16:51:10.045Z,15.20
2023-04-18T16:53:37.895Z,16.80
2023-04-18T16:56:07.962Z,17.97
2023-04-18T16:58:36.037Z,14.40
2023-04-18T17:01:03.872Z,17.10
2023-04-18T17:03:31.805Z,16.83
2023-04-18T17:05:59.757Z,18.00
2023-04-18T17:08:28.883Z,16.10
2023-04-18T17:10:56.791Z,19.20
2023-04-18T17:13:27.308Z,15.67
2023-04-18T17:15:56.345Z,15.03
2023-04-18T17:18:25.910Z,15.87
2023-04-18T17:20:53.984Z,19.00
2023-04-18T17:23:23.036Z,16.00
2023-04-18T17:25:50.798Z,16.40
2023-04-18T17:28:18.886Z,17.77
2023-04-18T17:30:47.085Z,14.33
2023-04-18T17:33:15.002Z,15.53
2023-04-18T17:35:42.688Z,17.83
2023-04-18T17:38:11.012Z,15.20
2023-04-18T17:40:39.734Z,16.80
2023-04-18T17:43:07.668Z,15.60
2023-04-18T17:45:35.580Z,15.07
2023-04-18T17:48:03.684Z,15.97
2023-04-18T17:50:31.982Z,14.37
2023-04-18T17:52:59.661Z,15.73
2023-04-18T17:55:27.404Z,14.70
2023-04-18T17:57:55.245Z,16.37
2023-04-18T18:00:23.409Z,16.67
2023-04-18T18:02:51.361Z,16.10
2023-04-18T18:05:19.319Z,12.83
2023-04-18T18:07:47.961Z,13.70
2023-04-18T18:10:23.704Z,19.87
2023-04-18T18:12:51.864Z,16.33
2023-04-18T18:15:20.372Z,16.23
2023-04-18T18:17:52.577Z,18.37
2023-04-18T18:20:20.841Z,19.63
2023-04-18T18:22:48.652Z,20.80
2023-04-18T18:25:16.584Z,21.17
2023-04-18T18:27:44.652Z,20.80
2023-04-18T18:30:13.409Z,16.27
2023-04-18T18:32:41.343Z,18.50
2023-04-18T18:35:10.047Z,16.43
2023-04-18T18:37:37.729Z,19.87
2023-04-18T18:40:09.435Z,18.80
2023-04-18T18:42:37.825Z,18.10
2023-04-18T18:45:07.613Z,17.30
2023-04-18T18:47:37.494Z,14.27
2023-04-18T18:50:08.012Z,16.63
2023-04-18T18:52:35.949Z,17.17
2023-04-18T18:55:04.825Z,14.57
2023-04-18T18:57:32.670Z,14.57
2023-04-18T19:00:00.752Z,15.13
2023-04-18T19:02:28.614Z,14.93
2023-04-18T19:04:56.466Z,13.50
2023-04-18T19:07:24.261Z,15.47
2023-04-18T19:09:53.717Z,13.73
2023-04-18T19:12:21.877Z,15.17
2023-04-18T19:14:51.014Z,13.33
2023-04-18T19:17:21.998Z,13.53
2023-04-18T19:19:49.740Z,15.70
2023-04-18T19:22:17.776Z,12.10
2023-04-18T19:24:45.865Z,15.40
2023-04-18T19:27:13.625Z,16.03
2023-04-18T19:29:41.659Z,11.70
2023-04-18T19:32:09.507Z,12.70
2023-04-18T19:34:38.567Z,16.33
2023-04-18T19:37:06.732Z,16.47
2023-04-18T19:39:34.528Z,14.43
2023-04-18T19:42:02.801Z,14.23
2023-04-18T19:44:31.310Z,12.90
2023-04-18T19:46:59.176Z,14.13
2023-04-18T19:49:27.125Z,12.80
2023-04-18T19:51:55.170Z,14.30
2023-04-18T19:54:22.928Z,15.90
2023-04-18T19:56:51.162Z,19.50
2023-04-18T19:59:18.986Z,11.37
2023-04-18T20:01:48.768Z,14.13
2023-04-18T20:04:17.139Z,15.97
2023-04-18T20:06:45.206Z,14.10
2023-04-18T20:09:16.863Z,16.20
2023-04-18T20:11:46.607Z,13.90
2023-04-18T20:14:14.400Z,13.80
2023-04-18T20:16:46.723Z,14.93
2023-04-18T20:19:14.908Z,16.30
2023-04-18T20:21:42.900Z,19.80
2023-04-18T20:24:15.267Z,17.10
2023-04-18T20:26:43.274Z,14.50
2023-04-18T20:29:11.363Z,15.03
2023-04-18T20:31:42.441Z,16.40
2023-04-18T20:34:10.720Z,15.93
2023-04-18T20:36:42.008Z,14.40
2023-04-18T20:39:10.117Z,15.00
2023-04-18T20:41:37.877Z,14.40
2023-04-18T20:44:05.955Z,13.60
2023-04-18T20:46:33.758Z,17.53
2023-04-18T20:49:01.662Z,20.37
2023-04-18T20:51:30.058Z,16.90
2023-04-18T20:54:00.743Z,17.20
2023-04-18T20:56:28.437Z,14.40
2023-04-18T20:58:56.409Z,14.27
2023-04-18T21:01:24.443Z,16.43
2023-04-18T21:03:52.472Z,14.93
2023-04-18T21:06:22.138Z,17.63
2023-04-18T21:08:49.927Z,18.27
2023-04-18T21:11:17.617Z,16.73
2023-04-18T21:13:45.483Z,17.13
2023-04-18T21:16:13.417Z,16.33
2023-04-18T21:18:41.275Z,21.03
2023-04-18T21:21:09.101Z,14.57
2023-04-18T21:23:44.533Z,17.77
2023-04-18T21:26:14.282Z,16.83
2023-04-18T21:29:01.787Z,17.97
2023-04-18T21:31:35.487Z,16.57
2023-04-18T21:34:05.828Z,16.17
2023-04-18T21:36:33.834Z,14.90
2023-04-18T21:39:02.303Z,15.47
2023-04-18T21:41:30.104Z,17.97
2023-04-18T21:43:58.388Z,16.20
2023-04-18T21:46:26.578Z,18.80
2023-04-18T21:48:54.656Z,16.30
2023-04-18T21:51:22.673Z,18.30
2023-04-18T21:53:50.445Z,14.40
2023-04-18T21:56:18.304Z,21.77
2023-04-18T21:58:46.545Z,16.30
2023-04-18T22:01:14.362Z,18.00
2023-04-18T22:03:42.414Z,15.77
2023-04-18T22:06:10.556Z,15.87
2023-04-18T22:08:38.335Z,19.00
2023-04-18T22:11:06.457Z,15.87
2023-04-18T22:13:34.228Z,19.20
2023-04-18T22:16:06.107Z,19.17
2023-04-18T22:18:34.450Z,18.80
2023-04-18T22:21:03.972Z,18.93
2023-04-18T22:23:32.054Z,19.23
2023-04-18T22:25:59.903Z,15.00
2023-04-18T22:28:31.031Z,17.00
2023-04-18T22:30:59.242Z,18.30
2023-04-18T22:33:28.050Z,20.43
2023-04-18T22:35:56.075Z,15.50
2023-04-18T22:38:26.342Z,18.10
2023-04-18T22:40:54.189Z,17.17
2023-04-18T22:43:23.842Z,15.83
2023-04-18T22:45:52.116Z,21.30
2023-04-18T22:48:20.278Z,18.20
2023-04-18T22:50:49.921Z,20.20
2023-04-18T22:53:18.327Z,20.20
2023-04-18T22:55:46.617Z,17.67
2023-04-18T22:58:14.879Z,20.93
2023-04-18T23:00:44.020Z,19.17
2023-04-18T23:03:11.996Z,18.60
2023-04-18T23:05:41.405Z,18.97
2023-04-18T23:08:09.201Z,24.53
2023-04-18T23:10:36.960Z,19.53
2023-04-18T23:13:04.792Z,22.00
2023-04-18T23:15:32.665Z,18.13
2023-04-18T23:18:00.697Z,18.73
2023-04-18T23:20:28.849Z,18.33
2023-04-18T23:22:56.579Z,17.57
2023-04-18T23:25:24.412Z,19.50
2023-04-18T23:27:52.123Z,17.00
2023-04-18T23:30:20.415Z,22.40
2023-04-18T23:32:48.235Z,19.27
2023-04-18T23:35:17.600Z,18.30
2023-04-18T23:37:45.554Z,18.73
2023-04-18T23:40:13.625Z,21.93
2023-04-18T23:42:42.302Z,21.00
2023-04-18T23:45:10.990Z,19.00
2023-04-18T23:47:38.861Z,19.97
2023-04-18T23:50:08.026Z,18.37
2023-04-18T23:52:36.145Z,18.37
2023-04-18T23:55:04.384Z,17.57
2023-04-18T23:57:32.253Z,17.60
2023-04-18T23:59:59.959Z,18.77
